createdAt,value
2022-11-16T00:00:44.376Z,99492.78
2022-11-16T00:05:47.324Z,99486.69
2022-11-16T00:10:50.125Z,99493.09
2022-11-16T00:15:57.414Z,99472.31
2022-11-16T00:21:00.573Z,99470.16
2022-11-16T00:26:08.887Z,99462.56
2022-11-16T00:31:11.799Z,99475.59
2022-11-16T00:36:15.004Z,99460.59
2022-11-16T00:41:18.019Z,99446.06
2022-11-16T00:46:21.424Z,99437.81
2022-11-16T00:51:24.077Z,99435.19
2022-11-16T00:56:27.685Z,99435.19
2022-11-16T01:01:30.869Z,99434.19
2022-11-16T01:06:33.849Z,99432.25
2022-11-16T01:11:55.553Z,99415.72
2022-11-16T01:16:58.492Z,99403.50
2022-11-16T01:22:01.447Z,99394.78
2022-11-16T01:27:04.754Z,99407.31
2022-11-16T01:32:07.527Z,99387.84
2022-11-16T01:37:11.133Z,99387.16
2022-11-16T01:42:20.015Z,99373.13
2022-11-16T01:47:22.956Z,99363.41
2022-11-16T01:52:31.482Z,99364.25
2022-11-16T01:57:41.949Z,99354.53
2022-11-16T02:02:45.232Z,99347.56
2022-11-16T02:08:38.693Z,99348.25
2022-11-16T02:14:37.229Z,99342.28
2022-11-16T02:20:01.008Z,99329.25
2022-11-16T02:25:26.637Z,99327.31
2022-11-16T02:30:29.771Z,99320.34
2022-11-16T02:35:49.936Z,99316.75
2022-11-16T02:40:59.025Z,99308.97
2022-11-16T02:46:08.601Z,99297.59
2022-11-16T02:51:12.384Z,99285.91
2022-11-16T02:56:16.368Z,99293.66
2022-11-16T03:01:35.956Z,99290.00
2022-11-16T03:06:41.659Z,99286.38
2022-11-16T03:11:59.336Z,99268.72
2022-11-16T03:17:06.894Z,99265.94
2022-11-16T03:22:35.498Z,99264.78
2022-11-16T03:27:54.577Z,99253.41
2022-11-16T03:33:06.245Z,99258.03
2022-11-16T03:38:12.187Z,99257.69
2022-11-16T03:43:17.705Z,99238.38
2022-11-16T03:48:20.697Z,99242.50
2022-11-16T03:53:23.543Z,99238.88
2022-11-16T03:58:26.505Z,99229.16
2022-11-16T04:03:29.572Z,99216.78
2022-11-16T04:08:51.686Z,99215.94
2022-11-16T04:14:12.885Z,99214.97
2022-11-16T04:19:33.921Z,99202.56
2022-11-16T04:24:40.295Z,99194.31
2022-11-16T04:29:43.591Z,99186.56
2022-11-16T04:35:05.184Z,99189.03
2022-11-16T04:40:09.585Z,99185.44
2022-11-16T04:45:30.815Z,99185.25
2022-11-16T04:50:35.191Z,99182.78
2022-11-16T04:55:40.365Z,99179.16
2022-11-16T05:00:43.297Z,99175.34
2022-11-16T05:05:46.363Z,99176.34
2022-11-16T05:10:51.616Z,99177.16
2022-11-16T05:15:54.475Z,99184.44
2022-11-16T05:21:03.196Z,99171.41
2022-11-16T05:26:06.224Z,99164.44
2022-11-16T05:31:08.967Z,99160.16
2022-11-16T05:36:11.969Z,99152.91
2022-11-16T05:41:15.389Z,99141.50
2022-11-16T05:46:18.173Z,99137.59
2022-11-16T05:51:21.574Z,99137.41
2022-11-16T05:56:24.519Z,99135.59
2022-11-16T06:01:27.618Z,99137.22
2022-11-16T06:06:30.831Z,99118.78
2022-11-16T06:11:36.280Z,99116.47
2022-11-16T06:16:39.124Z,99122.38
2022-11-16T06:21:43.280Z,99123.72
2022-11-16T06:26:47.183Z,99123.22
2022-11-16T06:31:50.582Z,99128.16
2022-11-16T06:36:53.551Z,99129.16
2022-11-16T06:41:56.449Z,99129.31
2022-11-16T06:46:59.276Z,99122.84
2022-11-16T06:52:02.127Z,99110.66
2022-11-16T06:57:05.090Z,99109.66
2022-11-16T07:02:10.569Z,99097.75
2022-11-16T07:07:15.256Z,99107.81
2022-11-16T07:12:18.120Z,99112.09
2022-11-16T07:17:21.047Z,99093.78
2022-11-16T07:22:23.872Z,99094.44
2022-11-16T07:27:26.807Z,99089.81
2022-11-16T07:32:31.086Z,99091.28
2022-11-16T07:37:34.176Z,99082.19
2022-11-16T07:42:37.673Z,99088.47
2022-11-16T07:47:41.327Z,99078.72
2022-11-16T07:52:46.579Z,99081.38
2022-11-16T07:57:53.300Z,99080.38
2022-11-16T08:02:57.149Z,99075.72
2022-11-16T08:08:00.387Z,99063.66
2022-11-16T08:13:04.003Z,99055.59
2022-11-16T08:18:06.983Z,99054.22
2022-11-16T08:23:10.269Z,99057.53
2022-11-16T08:28:14.488Z,99052.06
2022-11-16T08:33:18.014Z,99055.84
2022-11-16T08:38:21.348Z,99052.84
2022-11-16T08:43:24.569Z,99048.38
2022-11-16T08:48:27.700Z,99053.78
2022-11-16T08:53:30.610Z,99048.97
2022-11-16T08:58:33.692Z,99047.97
2022-11-16T09:03:38.979Z,99044.81
2022-11-16T09:08:44.330Z,99041.66
2022-11-16T09:13:50.439Z,99037.00
2022-11-16T09:18:54.068Z,99030.72
2022-11-16T09:23:57.934Z,99017.69
2022-11-16T09:29:03.145Z,99031.25
2022-11-16T09:34:05.822Z,99032.72
2022-11-16T09:45:00.475Z,99015.34
2022-11-16T09:50:07.320Z,99008.03
2022-11-16T09:55:36.869Z,98998.97
2022-11-16T10:00:47.434Z,98996.41
2022-11-16T10:06:03.394Z,99000.34
2022-11-16T10:11:16.481Z,98983.50
2022-11-16T10:16:35.538Z,98975.00
2022-11-16T10:21:52.276Z,98965.91
2022-11-16T10:27:07.169Z,98959.25
2022-11-16T10:32:32.887Z,98951.31
2022-11-16T10:37:41.102Z,98948.66
2022-11-16T10:43:05.154Z,98947.03
2022-11-16T10:48:42.762Z,98927.88
2022-11-16T10:53:45.725Z,98925.44
2022-11-16T10:59:03.451Z,98921.97
2022-11-16T11:04:17.631Z,98909.38
2022-11-16T11:09:36.916Z,98911.28
2022-11-16T11:14:39.832Z,98904.00
2022-11-16T11:19:42.846Z,98883.13
2022-11-16T11:24:49.033Z,98885.75
2022-11-16T11:29:55.790Z,98871.53
2022-11-16T11:35:00.450Z,98869.06
2022-11-16T11:40:31.537Z,98853.59
2022-11-16T11:46:03.994Z,98849.94
2022-11-16T11:51:38.346Z,98838.69
2022-11-16T11:56:41.302Z,98843.34
2022-11-16T12:02:25.793Z,98856.59
2022-11-16T12:07:40.553Z,98851.47
2022-11-16T12:13:25.910Z,98858.13
2022-11-16T12:19:12.908Z,98847.56
2022-11-16T12:24:52.623Z,98847.56
2022-11-16T12:30:21.232Z,98847.56
2022-11-16T12:35:42.721Z,98843.06
2022-11-16T12:41:08.710Z,98833.16
2022-11-16T12:47:05.286Z,98829.66
2022-11-16T12:52:26.049Z,98825.84
2022-11-16T12:57:59.690Z,98821.38
2022-11-16T13:03:33.539Z,98816.91
2022-11-16T13:09:11.187Z,98812.81
2022-11-16T13:14:21.897Z,98817.66
2022-11-16T13:19:25.242Z,98821.09
2022-11-16T13:25:03.841Z,98816.44
2022-11-16T13:30:27.987Z,98817.28
2022-11-16T13:35:31.150Z,98812.00
2022-11-16T13:40:34.312Z,98811.81
2022-11-16T13:46:00.009Z,98813.25
2022-11-16T13:51:23.255Z,98811.81
2022-11-16T13:56:29.405Z,98813.44
2022-11-16T14:02:04.194Z,98809.19
2022-11-16T14:07:43.096Z,98800.78
2022-11-16T14:12:56.282Z,98797.50
2022-11-16T14:18:09.949Z,98795.69
2022-11-16T14:23:40.326Z,98793.22
2022-11-16T14:28:46.345Z,98782.47
2022-11-16T14:33:57.013Z,98780.81
2022-11-16T14:39:27.623Z,98786.94
2022-11-16T14:44:38.036Z,98774.53
2022-11-16T14:49:46.709Z,98772.06
2022-11-16T14:54:59.343Z,98765.16
2022-11-16T15:00:18.027Z,98761.50
2022-11-16T15:05:27.031Z,98755.75
2022-11-16T15:10:30.234Z,98755.94
2022-11-16T15:15:33.222Z,98755.75
2022-11-16T15:20:46.708Z,98748.63
2022-11-16T15:25:57.078Z,98742.53
2022-11-16T15:31:05.938Z,98748.81
2022-11-16T15:36:33.081Z,98747.19
2022-11-16T15:41:38.118Z,98747.19
2022-11-16T15:46:42.899Z,98744.72
2022-11-16T15:51:45.809Z,98731.50
2022-11-16T15:56:50.059Z,98743.06
2022-11-16T16:01:53.621Z,98739.78
2022-11-16T16:06:59.761Z,98737.16
2022-11-16T16:12:22.650Z,98737.97
2022-11-16T16:17:30.789Z,98736.16
2022-11-16T16:22:37.202Z,98722.13
2022-11-16T16:27:41.266Z,98726.22
2022-11-16T16:32:52.189Z,98723.75
2022-11-16T16:38:01.138Z,98719.47
2022-11-16T16:43:04.152Z,98723.75
2022-11-16T16:48:09.220Z,98728.03
2022-11-16T16:53:14.368Z,98733.31
2022-11-16T16:58:17.406Z,98721.09
2022-11-16T17:03:24.288Z,98711.91
2022-11-16T17:08:27.270Z,98720.47
2022-11-16T17:13:30.420Z,98719.28
2022-11-16T17:18:33.402Z,98712.53
2022-11-16T17:23:37.573Z,98713.56
2022-11-16T17:28:40.744Z,98707.63
2022-11-16T17:33:43.930Z,98708.44
2022-11-16T17:38:46.994Z,98704.97
2022-11-16T17:43:54.215Z,98696.41
2022-11-16T17:48:57.648Z,98698.06
2022-11-16T17:54:01.099Z,98692.13
2022-11-16T17:59:04.465Z,98691.31
2022-11-16T18:04:07.425Z,98688.69
2022-11-16T18:09:10.325Z,98680.75
2022-11-16T18:14:13.462Z,98688.69
2022-11-16T18:19:19.104Z,98686.47
2022-11-16T18:24:22.048Z,98679.53
2022-11-16T18:29:25.062Z,98672.63
2022-11-16T18:34:27.931Z,98668.16
2022-11-16T18:39:31.204Z,98670.81
2022-11-16T18:44:34.081Z,98675.28
2022-11-16T18:49:37.629Z,98680.75
2022-11-16T18:54:40.587Z,98679.94
2022-11-16T18:59:43.562Z,98679.94
2022-11-16T19:04:46.645Z,98675.28
2022-11-16T19:09:49.554Z,98685.50
2022-11-16T19:14:52.505Z,98680.38
2022-11-16T19:19:55.258Z,98675.91
2022-11-16T19:25:03.044Z,98666.97
2022-11-16T19:30:09.125Z,98674.91
2022-11-16T19:35:12.500Z,98668.97
2022-11-16T19:40:18.688Z,98666.53
2022-11-16T19:45:23.870Z,98659.97
2022-11-16T19:50:27.263Z,98638.53
2022-11-16T19:55:30.195Z,98654.06
2022-11-16T20:00:33.052Z,98653.03
2022-11-16T20:05:36.013Z,98650.41
2022-11-16T20:10:38.891Z,98656.88
2022-11-16T20:15:41.759Z,98659.53
2022-11-16T20:20:44.762Z,98661.16
2022-11-16T20:25:47.687Z,98654.41
2022-11-16T20:30:51.768Z,98650.13
2022-11-16T20:36:20.876Z,98659.88
2022-11-16T20:41:27.144Z,98656.00
2022-11-16T20:46:32.789Z,98641.78
2022-11-16T20:51:35.647Z,98637.66
2022-11-16T20:56:38.578Z,98627.28
2022-11-16T21:01:44.860Z,98633.75
2022-11-16T21:06:47.836Z,98648.81
2022-11-16T21:12:08.843Z,98644.88
2022-11-16T21:17:11.815Z,98624.56
2022-11-16T21:22:14.619Z,98632.09
2022-11-16T21:27:17.481Z,98636.56
2022-11-16T21:32:20.363Z,98628.66
2022-11-16T21:37:23.366Z,98621.91
2022-11-16T21:42:26.263Z,98611.16
2022-11-16T21:47:29.649Z,98594.88
2022-11-16T21:52:33.053Z,98584.94
2022-11-16T21:57:36.027Z,98581.91
2022-11-16T22:02:38.993Z,98579.25
2022-11-16T22:07:55.314Z,98575.63
2022-11-16T22:13:01.819Z,98567.88
2022-11-16T22:18:05.012Z,98577.63
2022-11-16T22:23:07.949Z,98580.91
2022-11-16T22:28:20.688Z,98579.09
2022-11-16T22:33:23.989Z,98581.72
2022-11-16T22:38:27.666Z,98612.25
2022-11-16T22:43:31.874Z,98615.44
2022-11-16T22:48:39.060Z,98590.22
2022-11-16T22:53:41.978Z,98588.38
2022-11-16T22:58:44.830Z,98584.94
2022-11-16T23:03:48.730Z,98585.56
2022-11-16T23:08:52.316Z,98582.09
2022-11-16T23:14:13.999Z,98570.91
2022-11-16T23:19:38.264Z,98580.00
2022-11-16T23:24:59.985Z,98568.00
2022-11-16T23:30:11.913Z,98591.97
2022-11-16T23:35:15.920Z,98579.50
2022-11-16T23:40:19.360Z,98587.97
2022-11-16T23:45:22.269Z,98586.69
2022-11-16T23:50:25.148Z,98583.63
2022-11-16T23:55:28.976Z,98583.97
